createdAt,value
2023-04-03T00:02:20.911Z,30.81
2023-04-03T00:07:28.335Z,30.93
2023-04-03T00:12:35.695Z,31.08
2023-04-03T00:17:43.163Z,31.14
2023-04-03T00:22:50.491Z,31.01
2023-04-03T00:27:57.855Z,31.17
2023-04-03T00:33:05.276Z,31.66
2023-04-03T00:38:12.391Z,31.50
2023-04-03T00:43:19.561Z,32.55
2023-04-03T00:48:26.956Z,32.55
2023-04-03T00:53:34.394Z,32.61
2023-04-03T00:58:41.755Z,33.07
2023-04-03T01:03:49.500Z,34.19
2023-04-03T01:08:56.916Z,34.52
2023-04-03T01:14:04.541Z,33.04
2023-04-03T01:19:16.744Z,32.96
2023-04-03T01:24:24.278Z,33.63
2023-04-03T01:29:31.679Z,34.45
2023-04-03T01:34:39.296Z,33.44
2023-04-03T01:39:47.628Z,33.03
2023-04-03T01:45:10.022Z,33.34
2023-04-03T01:50:17.452Z,32.41
2023-04-03T01:55:25.087Z,32.04
2023-04-03T02:00:32.689Z,32.11
2023-04-03T02:05:40.021Z,32.65
2023-04-03T02:10:47.639Z,34.15
2023-04-03T02:15:57.165Z,33.96
2023-04-03T02:21:04.545Z,32.79
2023-04-03T02:26:12.243Z,32.81
2023-04-03T02:31:19.762Z,32.57
2023-04-03T02:36:27.098Z,32.57
2023-04-03T02:41:34.476Z,32.84
2023-04-03T02:46:45.456Z,31.69
2023-04-03T02:51:52.722Z,33.03
2023-04-03T02:57:00.219Z,32.68
2023-04-03T03:02:07.733Z,31.55
2023-04-03T03:07:15.497Z,32.28
2023-04-03T03:12:23.087Z,32.31
2023-04-03T03:17:30.346Z,32.64
2023-04-03T03:22:37.588Z,32.85
2023-04-03T03:27:44.816Z,33.55
2023-04-03T03:32:52.418Z,31.67
2023-04-03T03:38:22.500Z,31.85
2023-04-03T03:43:26.572Z,32.59
2023-04-03T03:48:34.066Z,32.17
2023-04-03T03:53:41.531Z,31.85
2023-04-03T03:58:48.991Z,31.45
2023-04-03T04:04:01.097Z,32.56
2023-04-03T04:09:08.354Z,32.33
2023-04-03T04:14:15.743Z,31.60
2023-04-03T04:19:23.065Z,31.61
2023-04-03T04:24:30.405Z,31.80
2023-04-03T04:29:37.998Z,32.64
2023-04-03T04:34:45.137Z,33.23
2023-04-03T04:39:52.390Z,32.72
2023-04-03T04:44:59.572Z,32.48
2023-04-03T04:50:06.753Z,32.23
2023-04-03T04:55:13.931Z,31.44
2023-04-03T05:00:21.140Z,34.09
2023-04-03T05:05:28.305Z,32.65
2023-04-03T05:10:35.485Z,32.22
2023-04-03T05:15:43.004Z,32.32
2023-04-03T05:20:50.418Z,31.35
2023-04-03T05:25:57.798Z,30.61
2023-04-03T05:31:14.311Z,30.40
2023-04-03T05:36:18.562Z,30.10
2023-04-03T05:41:26.172Z,29.74
2023-04-03T05:46:34.080Z,30.23
2023-04-03T05:51:44.758Z,30.08
2023-04-03T05:56:52.340Z,31.01
2023-04-03T06:02:05.972Z,31.24
2023-04-03T06:07:13.517Z,31.01
2023-04-03T06:12:21.039Z,30.33
2023-04-03T06:17:28.562Z,30.12
2023-04-03T06:22:35.892Z,30.49
2023-04-03T06:27:43.601Z,30.25
2023-04-03T06:32:57.953Z,30.88
2023-04-03T06:38:05.211Z,32.21
2023-04-03T06:43:48.149Z,31.01
2023-04-03T06:49:30.448Z,31.53
2023-04-03T06:54:37.894Z,30.83
2023-04-03T07:00:21.186Z,30.66
2023-04-03T07:05:28.630Z,34.31
2023-04-03T07:10:36.155Z,32.63
2023-04-03T07:15:51.827Z,32.74
2023-04-03T07:21:39.089Z,32.96
2023-04-03T07:26:47.555Z,31.80
2023-04-03T07:32:30.876Z,31.99
2023-04-03T07:37:38.876Z,31.54
2023-04-03T07:42:46.497Z,31.20
2023-04-03T07:47:59.292Z,33.36
2023-04-03T07:53:06.495Z,33.86
2023-04-03T07:58:17.488Z,32.05
2023-04-03T08:03:43.632Z,31.84
2023-04-03T08:08:40.897Z,33.04
2023-04-03T08:13:58.390Z,32.54
2023-04-03T08:19:26.076Z,31.74
2023-04-03T08:24:59.245Z,31.69
2023-04-03T08:30:01.835Z,31.26
2023-04-03T08:35:09.393Z,31.01
2023-04-03T08:45:42.038Z,30.55
2023-04-03T08:50:47.757Z,30.44
2023-04-03T08:55:55.410Z,30.67
2023-04-03T09:01:03.292Z,30.70
2023-04-03T09:06:25.496Z,31.03
2023-04-03T09:11:33.101Z,31.52
2023-04-03T09:16:40.549Z,32.91
2023-04-03T09:21:47.720Z,32.98
2023-04-03T09:27:01.666Z,32.32
2023-04-03T09:32:12.404Z,32.25
2023-04-03T09:37:34.724Z,32.66
2023-04-03T09:42:42.361Z,33.00
2023-04-03T09:47:49.662Z,32.25
2023-04-03T09:52:56.919Z,31.63
2023-04-03T09:58:04.266Z,31.37
2023-04-03T10:03:11.908Z,31.01
2023-04-03T10:08:19.458Z,30.73
2023-04-03T10:13:26.996Z,30.30
2023-04-03T10:18:34.658Z,30.38
2023-04-03T10:23:47.875Z,30.40
2023-04-03T10:28:55.225Z,30.29
2023-04-03T10:34:02.902Z,30.18
2023-04-03T10:39:10.023Z,30.09
2023-04-03T10:44:17.695Z,30.10
2023-04-03T10:49:31.520Z,30.19
2023-04-03T10:54:38.907Z,30.34
2023-04-03T10:59:48.389Z,30.18
2023-04-03T11:04:56.219Z,30.22
2023-04-03T11:10:03.307Z,30.22
2023-04-03T11:15:10.655Z,30.21
2023-04-03T11:20:18.132Z,30.27
2023-04-03T11:25:25.351Z,30.20
2023-04-03T11:30:40.786Z,30.09
2023-04-03T11:35:48.391Z,30.09
2023-04-03T11:40:55.710Z,30.04
2023-04-03T11:46:03.188Z,30.01
2023-04-03T11:51:10.633Z,30.01
2023-04-03T11:56:32.781Z,30.02
2023-04-03T12:01:40.366Z,30.05
2023-04-03T12:06:47.906Z,29.94
2023-04-03T12:11:55.173Z,30.05
2023-04-03T12:17:02.710Z,30.02
2023-04-03T12:22:10.212Z,30.10
2023-04-03T12:27:17.357Z,30.06
2023-04-03T12:32:25.011Z,30.02
2023-04-03T12:37:32.583Z,30.16
2023-04-03T12:42:47.714Z,30.08
2023-04-03T12:47:55.419Z,29.91
2023-04-03T12:53:02.830Z,30.08
2023-04-03T12:58:16.715Z,30.18
2023-04-03T13:03:39.459Z,30.27
2023-04-03T13:08:51.709Z,30.24
2023-04-03T13:13:59.681Z,30.19
2023-04-03T13:19:19.704Z,30.15
2023-04-03T13:24:27.310Z,30.04
2023-04-03T13:29:34.841Z,30.01
2023-04-03T13:34:42.363Z,29.96
2023-04-03T13:41:36.542Z,29.71
2023-04-03T13:46:43.981Z,29.52
2023-04-03T13:52:06.741Z,29.67
2023-04-03T13:57:08.824Z,29.91
2023-04-03T14:03:06.125Z,29.87
2023-04-03T14:08:13.441Z,29.95
2023-04-03T14:13:21.057Z,30.03
2023-04-03T14:18:30.999Z,29.97
2023-04-03T14:23:38.366Z,29.61
2023-04-03T14:28:45.962Z,29.56
2023-04-03T14:33:53.256Z,29.15
2023-04-03T14:39:00.716Z,29.56
2023-04-03T14:44:08.056Z,29.53
2023-04-03T14:49:15.521Z,29.30
2023-04-03T14:54:27.876Z,29.23
2023-04-03T14:59:33.219Z,29.60
2023-04-03T15:04:40.663Z,29.86
2023-04-03T15:09:47.918Z,29.86
2023-04-03T15:15:01.858Z,29.91
2023-04-03T15:20:02.810Z,30.09
2023-04-03T15:25:10.192Z,30.04
2023-04-03T15:30:17.632Z,29.76
2023-04-03T15:35:24.995Z,29.86
2023-04-03T15:40:32.376Z,29.75
2023-04-03T15:45:40.120Z,29.88
2023-04-03T15:50:47.310Z,29.82
2023-04-03T15:55:54.683Z,29.83
2023-04-03T16:01:02.153Z,29.40
2023-04-03T16:06:09.575Z,29.13
2023-04-03T16:11:16.902Z,29.36
2023-04-03T16:16:35.704Z,29.55
2023-04-03T16:21:51.669Z,28.70
2023-04-03T16:26:58.960Z,28.87
2023-04-03T16:32:10.620Z,29.05
2023-04-03T16:37:33.270Z,29.03
2023-04-03T16:42:40.825Z,28.59
2023-04-03T16:47:48.457Z,28.69
2023-04-03T16:52:55.986Z,28.80
2023-04-03T16:58:03.789Z,30.10
2023-04-03T17:03:11.486Z,30.36
2023-04-03T17:08:19.129Z,30.01
2023-04-03T17:14:01.637Z,29.78
2023-04-03T17:19:09.110Z,29.66
2023-04-03T17:24:16.455Z,29.54
2023-04-03T17:29:25.033Z,29.31
2023-04-03T17:34:32.510Z,29.18
2023-04-03T17:39:40.055Z,29.12
2023-04-03T17:44:47.774Z,28.93
2023-04-03T17:49:55.228Z,28.86
2023-04-03T17:55:02.361Z,28.74
2023-04-03T18:00:10.919Z,28.62
2023-04-03T18:05:18.378Z,28.51
2023-04-03T18:10:25.861Z,28.43
2023-04-03T18:15:33.255Z,28.36
2023-04-03T18:20:40.997Z,28.25
2023-04-03T18:25:48.402Z,28.13
2023-04-03T18:30:56.071Z,28.04
2023-04-03T18:36:04.066Z,27.96
2023-04-03T18:41:15.501Z,27.78
2023-04-03T18:46:23.490Z,27.77
2023-04-03T18:51:30.983Z,27.58
2023-04-03T18:56:38.699Z,27.59
2023-04-03T19:01:46.831Z,27.52
2023-04-03T19:06:54.661Z,27.47
2023-04-03T19:12:02.568Z,27.36
2023-04-03T19:17:10.602Z,27.33
2023-04-03T19:22:18.057Z,27.32
2023-04-03T19:28:00.771Z,27.24
2023-04-03T19:33:43.447Z,27.17
2023-04-03T19:39:48.329Z,27.16
2023-04-03T19:50:32.111Z,27.07
2023-04-03T19:56:40.245Z,27.01
2023-04-03T20:02:22.761Z,26.96
2023-04-03T20:08:21.374Z,26.87
2023-04-03T20:13:35.080Z,26.86
2023-04-03T20:18:56.046Z,26.81
2023-04-03T20:24:21.495Z,26.80
2023-04-03T20:29:38.167Z,26.75
2023-04-03T20:34:30.075Z,26.72
2023-04-03T20:39:42.752Z,26.72
2023-04-03T20:44:59.057Z,26.68
2023-04-03T20:50:12.981Z,26.70
2023-04-03T20:56:04.507Z,26.68
2023-04-03T21:01:16.206Z,26.60
2023-04-03T21:06:32.015Z,26.60
2023-04-03T21:17:04.059Z,26.47
2023-04-03T21:17:54.961Z,26.55
2023-04-03T21:22:46.745Z,26.46
2023-04-03T21:29:41.432Z,26.40
2023-04-03T21:33:16.714Z,26.39
2023-04-03T21:39:08.149Z,26.34
2023-04-03T21:44:26.694Z,26.29
2023-04-03T21:50:41.916Z,26.25
2023-04-03T21:55:43.522Z,26.27
2023-04-03T22:00:51.136Z,26.23
2023-04-03T22:06:38.559Z,26.13
2023-04-03T22:12:56.518Z,26.12
2023-04-03T22:17:59.546Z,26.22
2023-04-03T22:23:42.324Z,26.26
2023-04-03T22:29:11.390Z,26.13
2023-04-03T22:40:55.391Z,26.24
2023-04-03T22:45:30.418Z,26.30
2023-04-03T22:51:13.125Z,26.14
2023-04-03T22:56:55.959Z,26.14
2023-04-03T23:02:17.620Z,26.22
2023-04-03T23:07:28.013Z,26.08
2023-04-03T23:13:10.977Z,26.08
2023-04-03T23:18:31.862Z,26.07
2023-04-03T23:24:22.367Z,25.94
2023-04-03T23:29:35.240Z,25.98
2023-04-03T23:34:43.228Z,25.95
2023-04-03T23:40:35.955Z,25.89
2023-04-03T23:45:43.749Z,25.83
2023-04-03T23:51:35.569Z,25.78
2023-04-03T23:57:18.177Z,26.25
